sensor_id;sensor_type;location;lat;lon;timestamp;temperature;humidity
68387;DHT22;55338;43.062;25.624;2022-10-18T00:02:16;5.20;99.90
68387;DHT22;55338;43.062;25.624;2022-10-18T00:04:45;5.20;99.90
68387;DHT22;55338;43.062;25.624;2022-10-18T00:07:11;5.30;99.90
68387;DHT22;55338;43.062;25.624;2022-10-18T00:09:36;5.30;99.90
68387;DHT22;55338;43.062;25.624;2022-10-18T00:12:02;5.30;99.90
68387;DHT22;55338;43.062;25.624;2022-10-18T00:14:28;5.20;99.90
68387;DHT22;55338;43.062;25.624;2022-10-18T00:16:54;5.10;99.90
68387;DHT22;55338;43.062;25.624;2022-10-18T00:19:20;5.00;99.90
68387;DHT22;55338;43.062;25.624;2022-10-18T00:21:48;5.00;99.90
68387;DHT22;55338;43.062;25.624;2022-10-18T00:24:14;5.00;99.90
68387;DHT22;55338;43.062;25.624;2022-10-18T00:26:39;5.00;99.90
68387;DHT22;55338;43.062;25.624;2022-10-18T00:29:05;4.90;99.90
68387;DHT22;55338;43.062;25.624;2022-10-18T00:31:36;4.90;99.90
68387;DHT22;55338;43.062;25.624;2022-10-18T00:34:06;4.90;99.90
68387;DHT22;55338;43.062;25.624;2022-10-18T00:36:33;4.80;99.90
68387;DHT22;55338;43.062;25.624;2022-10-18T00:39:00;4.80;99.90
68387;DHT22;55338;43.062;25.624;2022-10-18T00:41:29;4.90;99.90
68387;DHT22;55338;43.062;25.624;2022-10-18T00:43:59;4.90;99.90
68387;DHT22;55338;43.062;25.624;2022-10-18T00:46:28;4.80;99.90
68387;DHT22;55338;43.062;25.624;2022-10-18T00:48:55;4.70;99.90
68387;DHT22;55338;43.062;25.624;2022-10-18T00:51:24;4.60;99.90
68387;DHT22;55338;43.062;25.624;2022-10-18T00:53:51;4.60;99.90
68387;DHT22;55338;43.062;25.624;2022-10-18T00:56:17;4.60;99.90
68387;DHT22;55338;43.062;25.624;2022-10-18T00:58:43;4.50;99.90
68387;DHT22;55338;43.062;25.624;2022-10-18T01:01:10;4.50;99.90
68387;DHT22;55338;43.062;25.624;2022-10-18T01:03:36;4.50;99.90
68387;DHT22;55338;43.062;25.624;2022-10-18T01:06:02;4.40;99.90
68387;DHT22;55338;43.062;25.624;2022-10-18T01:12:23;4.50;99.90
68387;DHT22;55338;43.062;25.624;2022-10-18T01:22:26;4.40;99.90
68387;DHT22;55338;43.062;25.624;2022-10-18T01:25:06;4.50;99.90
68387;DHT22;55338;43.062;25.624;2022-10-18T01:35:43;4.30;99.90
68387;DHT22;55338;43.062;25.624;2022-10-18T01:38:13;4.30;99.90
68387;DHT22;55338;43.062;25.624;2022-10-18T01:40:43;4.20;99.90
68387;DHT22;55338;43.062;25.624;2022-10-18T01:43:11;4.20;99.90
68387;DHT22;55338;43.062;25.624;2022-10-18T01:45:39;4.20;99.90
68387;DHT22;55338;43.062;25.624;2022-10-18T01:48:06;4.10;99.90
68387;DHT22;55338;43.062;25.624;2022-10-18T01:50:34;4.10;99.90
68387;DHT22;55338;43.062;25.624;2022-10-18T01:53:00;4.00;99.90
68387;DHT22;55338;43.062;25.624;2022-10-18T01:55:37;4.00;99.90
68387;DHT22;55338;43.062;25.624;2022-10-18T01:58:28;4.00;99.90
68387;DHT22;55338;43.062;25.624;2022-10-18T02:04:10;4.00;99.90
68387;DHT22;55338;43.062;25.624;2022-10-18T02:06:42;4.10;99.90
68387;DHT22;55338;43.062;25.624;2022-10-18T02:09:18;4.10;99.90
68387;DHT22;55338;43.062;25.624;2022-10-18T02:11:47;4.10;99.90
68387;DHT22;55338;43.062;25.624;2022-10-18T02:14:15;4.10;99.90
68387;DHT22;55338;43.062;25.624;2022-10-18T02:16:48;4.10;99.90
68387;DHT22;55338;43.062;25.624;2022-10-18T02:19:28;4.10;99.90
68387;DHT22;55338;43.062;25.624;2022-10-18T02:21:56;4.10;99.90
68387;DHT22;55338;43.062;25.624;2022-10-18T02:24:46;4.10;99.90
68387;DHT22;55338;43.062;25.624;2022-10-18T02:27:10;4.20;99.90
68387;DHT22;55338;43.062;25.624;2022-10-18T02:29:37;4.20;99.90
68387;DHT22;55338;43.062;25.624;2022-10-18T02:34:57;4.20;99.90
68387;DHT22;55338;43.062;25.624;2022-10-18T02:37:29;4.20;99.90
68387;DHT22;55338;43.062;25.624;2022-10-18T02:39:57;4.10;99.90
68387;DHT22;55338;43.062;25.624;2022-10-18T02:42:23;3.90;99.90
68387;DHT22;55338;43.062;25.624;2022-10-18T02:44:49;3.90;99.90
68387;DHT22;55338;43.062;25.624;2022-10-18T02:47:15;3.80;99.90
68387;DHT22;55338;43.062;25.624;2022-10-18T02:49:40;3.50;99.90
68387;DHT22;55338;43.062;25.624;2022-10-18T02:52:06;3.80;99.90
68387;DHT22;55338;43.062;25.624;2022-10-18T02:54:32;3.80;99.90
68387;DHT22;55338;43.062;25.624;2022-10-18T02:56:58;3.80;99.90
68387;DHT22;55338;43.062;25.624;2022-10-18T02:59:23;3.80;99.90
68387;DHT22;55338;43.062;25.624;2022-10-18T03:01:49;3.80;99.90
68387;DHT22;55338;43.062;25.624;2022-10-18T03:04:15;3.70;99.90
68387;DHT22;55338;43.062;25.624;2022-10-18T03:06:41;3.70;99.90
68387;DHT22;55338;43.062;25.624;2022-10-18T03:09:06;3.60;99.90
68387;DHT22;55338;43.062;25.624;2022-10-18T03:11:32;3.60;99.90
68387;DHT22;55338;43.062;25.624;2022-10-18T03:13:58;3.60;99.90
68387;DHT22;55338;43.062;25.624;2022-10-18T03:16:24;3.60;99.90
68387;DHT22;55338;43.062;25.624;2022-10-18T03:18:49;3.60;99.90
68387;DHT22;55338;43.062;25.624;2022-10-18T03:21:15;3.60;99.90
68387;DHT22;55338;43.062;25.624;2022-10-18T03:23:41;3.60;99.90
68387;DHT22;55338;43.062;25.624;2022-10-18T03:26:07;3.50;99.90
68387;DHT22;55338;43.062;25.624;2022-10-18T03:28:33;3.50;99.90
68387;DHT22;55338;43.062;25.624;2022-10-18T03:31:03;3.50;99.90
68387;DHT22;55338;43.062;25.624;2022-10-18T03:33:30;3.50;99.90
68387;DHT22;55338;43.062;25.624;2022-10-18T03:35:57;3.40;99.90
68387;DHT22;55338;43.062;25.624;2022-10-18T03:38:22;3.40;99.90
68387;DHT22;55338;43.062;25.624;2022-10-18T03:40:48;3.40;99.90
68387;DHT22;55338;43.062;25.624;2022-10-18T03:43:14;3.40;99.90
68387;DHT22;55338;43.062;25.624;2022-10-18T03:45:40;3.40;99.90
68387;DHT22;55338;43.062;25.624;2022-10-18T03:48:06;3.40;99.90
68387;DHT22;55338;43.062;25.624;2022-10-18T03:50:31;3.40;99.90
68387;DHT22;55338;43.062;25.624;2022-10-18T03:52:57;3.40;99.90
68387;DHT22;55338;43.062;25.624;2022-10-18T03:55:23;3.40;99.90
68387;DHT22;55338;43.062;25.624;2022-10-18T03:57:49;3.30;99.90
68387;DHT22;55338;43.062;25.624;2022-10-18T04:00:15;3.40;99.90
68387;DHT22;55338;43.062;25.624;2022-10-18T04:02:41;3.40;99.90
68387;DHT22;55338;43.062;25.624;2022-10-18T04:05:07;3.40;99.90
68387;DHT22;55338;43.062;25.624;2022-10-18T04:07:34;3.40;99.90
68387;DHT22;55338;43.062;25.624;2022-10-18T04:10:00;3.40;99.90
68387;DHT22;55338;43.062;25.624;2022-10-18T04:12:25;3.30;99.90
68387;DHT22;55338;43.062;25.624;2022-10-18T04:14:51;3.30;99.90
68387;DHT22;55338;43.062;25.624;2022-10-18T04:17:17;3.30;99.90
68387;DHT22;55338;43.062;25.624;2022-10-18T04:19:42;3.30;99.90
68387;DHT22;55338;43.062;25.624;2022-10-18T04:22:09;3.30;99.90
68387;DHT22;55338;43.062;25.624;2022-10-18T04:24:37;3.20;99.90
68387;DHT22;55338;43.062;25.624;2022-10-18T04:27:04;3.30;99.90
68387;DHT22;55338;43.062;25.624;2022-10-18T04:29:30;3.30;99.90
68387;DHT22;55338;43.062;25.624;2022-10-18T04:31:56;3.30;99.90
68387;DHT22;55338;43.062;25.624;2022-10-18T04:34:22;3.30;99.90
68387;DHT22;55338;43.062;25.624;2022-10-18T04:36:47;3.30;99.90
68387;DHT22;55338;43.062;25.624;2022-10-18T04:39:13;3.30;99.90
68387;DHT22;55338;43.062;25.624;2022-10-18T04:41:39;3.30;99.90
68387;DHT22;55338;43.062;25.624;2022-10-18T04:44:05;3.30;99.90
68387;DHT22;55338;43.062;25.624;2022-10-18T04:46:31;3.30;99.90
68387;DHT22;55338;43.062;25.624;2022-10-18T04:48:56;3.30;99.90
68387;DHT22;55338;43.062;25.624;2022-10-18T04:51:22;3.30;99.90
68387;DHT22;55338;43.062;25.624;2022-10-18T04:53:48;3.30;99.90
68387;DHT22;55338;43.062;25.624;2022-10-18T04:56:15;3.40;99.90
68387;DHT22;55338;43.062;25.624;2022-10-18T04:58:41;3.40;99.90
68387;DHT22;55338;43.062;25.624;2022-10-18T05:01:06;3.40;99.90
68387;DHT22;55338;43.062;25.624;2022-10-18T05:03:33;3.30;99.90
68387;DHT22;55338;43.062;25.624;2022-10-18T05:05:59;3.30;99.90
68387;DHT22;55338;43.062;25.624;2022-10-18T05:08:24;3.40;99.90
68387;DHT22;55338;43.062;25.624;2022-10-18T05:10:50;3.50;99.90
68387;DHT22;55338;43.062;25.624;2022-10-18T05:13:16;3.60;99.90
68387;DHT22;55338;43.062;25.624;2022-10-18T05:15:42;3.80;99.90
68387;DHT22;55338;43.062;25.624;2022-10-18T05:18:07;4.00;99.90
68387;DHT22;55338;43.062;25.624;2022-10-18T05:20:33;4.10;99.90
68387;DHT22;55338;43.062;25.624;2022-10-18T05:22:59;4.20;99.90
68387;DHT22;55338;43.062;25.624;2022-10-18T05:25:24;4.50;99.90
68387;DHT22;55338;43.062;25.624;2022-10-18T05:27:50;4.60;99.80
68387;DHT22;55338;43.062;25.624;2022-10-18T05:30:16;4.70;99.80
68387;DHT22;55338;43.062;25.624;2022-10-18T05:32:42;4.80;99.00
68387;DHT22;55338;43.062;25.624;2022-10-18T05:35:07;5.00;99.00
68387;DHT22;55338;43.062;25.624;2022-10-18T05:37:33;5.10;98.40
68387;DHT22;55338;43.062;25.624;2022-10-18T05:39:59;5.30;98.30
68387;DHT22;55338;43.062;25.624;2022-10-18T05:42:25;5.40;97.70
68387;DHT22;55338;43.062;25.624;2022-10-18T05:44:50;5.50;97.00
68387;DHT22;55338;43.062;25.624;2022-10-18T05:47:16;5.60;96.90
68387;DHT22;55338;43.062;25.624;2022-10-18T05:49:42;5.80;96.90
68387;DHT22;55338;43.062;25.624;2022-10-18T05:52:08;5.90;96.50
68387;DHT22;55338;43.062;25.624;2022-10-18T05:54:33;6.10;95.70
68387;DHT22;55338;43.062;25.624;2022-10-18T05:56:59;6.30;95.30
68387;DHT22;55338;43.062;25.624;2022-10-18T05:59:25;6.50;94.00
68387;DHT22;55338;43.062;25.624;2022-10-18T06:01:51;6.60;93.70
68387;DHT22;55338;43.062;25.624;2022-10-18T06:04:16;6.80;92.90
68387;DHT22;55338;43.062;25.624;2022-10-18T06:06:42;7.10;92.50
68387;DHT22;55338;43.062;25.624;2022-10-18T06:09:08;7.40;92.00
68387;DHT22;55338;43.062;25.624;2022-10-18T06:11:35;7.80;90.40
68387;DHT22;55338;43.062;25.624;2022-10-18T06:14:01;8.10;89.10
68387;DHT22;55338;43.062;25.624;2022-10-18T06:16:27;8.50;88.00
68387;DHT22;55338;43.062;25.624;2022-10-18T06:18:56;9.00;86.80
68387;DHT22;55338;43.062;25.624;2022-10-18T06:21:23;9.50;84.90
68387;DHT22;55338;43.062;25.624;2022-10-18T06:23:54;9.70;84.00
68387;DHT22;55338;43.062;25.624;2022-10-18T06:26:20;9.90;83.00
68387;DHT22;55338;43.062;25.624;2022-10-18T06:28:47;10.40;81.70
68387;DHT22;55338;43.062;25.624;2022-10-18T06:31:13;10.80;80.50
68387;DHT22;55338;43.062;25.624;2022-10-18T06:33:39;11.30;78.50
68387;DHT22;55338;43.062;25.624;2022-10-18T06:36:13;11.40;77.70
68387;DHT22;55338;43.062;25.624;2022-10-18T06:38:39;11.50;77.60
68387;DHT22;55338;43.062;25.624;2022-10-18T06:41:06;11.80;77.20
68387;DHT22;55338;43.062;25.624;2022-10-18T06:43:33;12.20;75.60
68387;DHT22;55338;43.062;25.624;2022-10-18T06:46:01;12.60;74.90
68387;DHT22;55338;43.062;25.624;2022-10-18T06:48:29;13.10;72.80
68387;DHT22;55338;43.062;25.624;2022-10-18T06:50:57;13.30;71.50
68387;DHT22;55338;43.062;25.624;2022-10-18T06:53:25;13.70;70.50
68387;DHT22;55338;43.062;25.624;2022-10-18T06:55:51;14.00;69.60
68387;DHT22;55338;43.062;25.624;2022-10-18T06:58:16;14.40;67.60
68387;DHT22;55338;43.062;25.624;2022-10-18T07:00:42;14.70;67.10
68387;DHT22;55338;43.062;25.624;2022-10-18T07:03:10;15.10;65.90
68387;DHT22;55338;43.062;25.624;2022-10-18T07:05:36;15.50;64.70
68387;DHT22;55338;43.062;25.624;2022-10-18T07:08:02;15.90;62.90
68387;DHT22;55338;43.062;25.624;2022-10-18T07:10:27;16.10;61.90
68387;DHT22;55338;43.062;25.624;2022-10-18T07:12:53;16.40;62.00
68387;DHT22;55338;43.062;25.624;2022-10-18T07:15:19;16.50;61.50
68387;DHT22;55338;43.062;25.624;2022-10-18T07:17:47;16.80;61.70
68387;DHT22;55338;43.062;25.624;2022-10-18T07:20:13;17.00;61.00
68387;DHT22;55338;43.062;25.624;2022-10-18T07:22:39;17.00;59.40
68387;DHT22;55338;43.062;25.624;2022-10-18T07:25:05;17.20;58.90
68387;DHT22;55338;43.062;25.624;2022-10-18T07:27:37;17.30;59.00
68387;DHT22;55338;43.062;25.624;2022-10-18T07:30:08;17.50;59.40
68387;DHT22;55338;43.062;25.624;2022-10-18T07:32:35;17.80;57.40
68387;DHT22;55338;43.062;25.624;2022-10-18T07:35:01;18.10;57.20
68387;DHT22;55338;43.062;25.624;2022-10-18T07:37:27;17.90;57.80
68387;DHT22;55338;43.062;25.624;2022-10-18T07:39:53;17.90;58.20
68387;DHT22;55338;43.062;25.624;2022-10-18T07:42:19;18.20;57.50
68387;DHT22;55338;43.062;25.624;2022-10-18T07:44:45;18.20;56.60
68387;DHT22;55338;43.062;25.624;2022-10-18T07:47:10;18.10;57.30
68387;DHT22;55338;43.062;25.624;2022-10-18T07:49:36;18.30;56.80
68387;DHT22;55338;43.062;25.624;2022-10-18T07:52:02;18.50;55.70
68387;DHT22;55338;43.062;25.624;2022-10-18T07:54:28;18.20;57.00
68387;DHT22;55338;43.062;25.624;2022-10-18T07:56:54;18.30;56.70
68387;DHT22;55338;43.062;25.624;2022-10-18T07:59:20;18.40;57.10
68387;DHT22;55338;43.062;25.624;2022-10-18T08:01:46;18.70;56.90
68387;DHT22;55338;43.062;25.624;2022-10-18T08:04:11;19.30;54.70
68387;DHT22;55338;43.062;25.624;2022-10-18T08:06:37;19.40;54.60
68387;DHT22;55338;43.062;25.624;2022-10-18T08:09:03;19.80;53.30
68387;DHT22;55338;43.062;25.624;2022-10-18T08:11:31;20.10;52.60
68387;DHT22;55338;43.062;25.624;2022-10-18T08:13:57;20.30;52.90
68387;DHT22;55338;43.062;25.624;2022-10-18T08:16:25;20.40;51.40
68387;DHT22;55338;43.062;25.624;2022-10-18T08:18:51;20.50;52.70
68387;DHT22;55338;43.062;25.624;2022-10-18T08:21:18;20.70;51.50
68387;DHT22;55338;43.062;25.624;2022-10-18T08:23:44;21.30;50.20
68387;DHT22;55338;43.062;25.624;2022-10-18T08:26:12;21.20;50.10
68387;DHT22;55338;43.062;25.624;2022-10-18T08:28:40;21.20;50.50
68387;DHT22;55338;43.062;25.624;2022-10-18T08:31:08;21.80;49.20
68387;DHT22;55338;43.062;25.624;2022-10-18T08:33:35;22.00;48.70
68387;DHT22;55338;43.062;25.624;2022-10-18T08:36:02;22.50;47.30
68387;DHT22;55338;43.062;25.624;2022-10-18T08:38:36;22.90;46.20
68387;DHT22;55338;43.062;25.624;2022-10-18T08:41:28;23.80;45.60
68387;DHT22;55338;43.062;25.624;2022-10-18T08:44:10;24.40;43.00
68387;DHT22;55338;43.062;25.624;2022-10-18T08:46:43;24.10;44.00
68387;DHT22;55338;43.062;25.624;2022-10-18T08:49:18;24.50;43.00
68387;DHT22;55338;43.062;25.624;2022-10-18T08:51:48;24.00;42.50
68387;DHT22;55338;43.062;25.624;2022-10-18T08:54:29;23.30;44.20
68387;DHT22;55338;43.062;25.624;2022-10-18T08:57:01;23.30;44.90
68387;DHT22;55338;43.062;25.624;2022-10-18T08:59:38;23.90;43.60
68387;DHT22;55338;43.062;25.624;2022-10-18T09:02:25;23.90;44.10
68387;DHT22;55338;43.062;25.624;2022-10-18T09:05:11;23.90;42.80
68387;DHT22;55338;43.062;25.624;2022-10-18T09:10:28;24.20;42.20
68387;DHT22;55338;43.062;25.624;2022-10-18T09:15:57;25.90;38.30
68387;DHT22;55338;43.062;25.624;2022-10-18T09:18:54;26.40;37.00
68387;DHT22;55338;43.062;25.624;2022-10-18T09:24:39;27.20;35.30
68387;DHT22;55338;43.062;25.624;2022-10-18T09:27:36;26.60;35.40
68387;DHT22;55338;43.062;25.624;2022-10-18T09:30:10;26.90;33.70
68387;DHT22;55338;43.062;25.624;2022-10-18T09:35:32;27.10;33.80
68387;DHT22;55338;43.062;25.624;2022-10-18T09:38:03;27.70;33.00
68387;DHT22;55338;43.062;25.624;2022-10-18T09:40:34;28.10;31.50
68387;DHT22;55338;43.062;25.624;2022-10-18T09:43:11;28.30;31.50
68387;DHT22;55338;43.062;25.624;2022-10-18T09:45:43;28.40;29.60
68387;DHT22;55338;43.062;25.624;2022-10-18T09:48:28;28.50;27.30
68387;DHT22;55338;43.062;25.624;2022-10-18T09:51:02;28.30;28.00
68387;DHT22;55338;43.062;25.624;2022-10-18T09:56:25;28.20;25.50
68387;DHT22;55338;43.062;25.624;2022-10-18T09:58:53;28.10;26.10
68387;DHT22;55338;43.062;25.624;2022-10-18T10:01:28;28.20;25.30
68387;DHT22;55338;43.062;25.624;2022-10-18T10:03:54;28.10;22.50
68387;DHT22;55338;43.062;25.624;2022-10-18T10:06:28;28.30;23.20
68387;DHT22;55338;43.062;25.624;2022-10-18T10:09:00;28.50;21.60
68387;DHT22;55338;43.062;25.624;2022-10-18T10:14:21;29.00;18.70
68387;DHT22;55338;43.062;25.624;2022-10-18T10:17:01;29.60;19.50
68387;DHT22;55338;43.062;25.624;2022-10-18T10:19:34;29.90;18.70
68387;DHT22;55338;43.062;25.624;2022-10-18T10:22:09;30.30;18.20
68387;DHT22;55338;43.062;25.624;2022-10-18T10:24:50;30.30;18.60
68387;DHT22;55338;43.062;25.624;2022-10-18T10:30:32;30.60;19.10
68387;DHT22;55338;43.062;25.624;2022-10-18T10:32:58;30.50;18.30
68387;DHT22;55338;43.062;25.624;2022-10-18T12:30:16;30.60;19.60
68387;DHT22;55338;43.062;25.624;2022-10-18T12:32:45;31.20;19.30
68387;DHT22;55338;43.062;25.624;2022-10-18T12:35:15;31.50;18.70
68387;DHT22;55338;43.062;25.624;2022-10-18T12:37:53;31.20;17.60
68387;DHT22;55338;43.062;25.624;2022-10-18T12:40:45;31.00;18.20
68387;DHT22;55338;43.062;25.624;2022-10-18T12:43:16;30.50;19.70
68387;DHT22;55338;43.062;25.624;2022-10-18T12:46:03;30.50;19.90
68387;DHT22;55338;43.062;25.624;2022-10-18T12:48:38;30.70;19.20
68387;DHT22;55338;43.062;25.624;2022-10-18T12:51:18;30.70;18.50
68387;DHT22;55338;43.062;25.624;2022-10-18T12:53:46;30.30;19.40
68387;DHT22;55338;43.062;25.624;2022-10-18T13:09:39;30.40;19.70
68387;DHT22;55338;43.062;25.624;2022-10-18T13:15:05;30.40;19.70
68387;DHT22;55338;43.062;25.624;2022-10-18T13:17:51;30.60;18.70
68387;DHT22;55338;43.062;25.624;2022-10-18T13:20:43;31.10;18.70
68387;DHT22;55338;43.062;25.624;2022-10-18T13:35:50;31.00;17.60
68387;DHT22;55338;43.062;25.624;2022-10-18T13:39:05;31.10;17.70
68387;DHT22;55338;43.062;25.624;2022-10-18T13:52:30;33.30;13.70
68387;DHT22;55338;43.062;25.624;2022-10-18T14:06:42;33.90;13.30
68387;DHT22;55338;43.062;25.624;2022-10-18T14:11:48;34.30;11.30
68387;DHT22;55338;43.062;25.624;2022-10-18T14:17:27;33.50;11.60
68387;DHT22;55338;43.062;25.624;2022-10-18T14:22:43;30.30;16.30
68387;DHT22;55338;43.062;25.624;2022-10-18T14:25:25;28.80;19.70
68387;DHT22;55338;43.062;25.624;2022-10-18T14:28:17;27.30;24.60
68387;DHT22;55338;43.062;25.624;2022-10-18T14:30:56;26.00;26.80
68387;DHT22;55338;43.062;25.624;2022-10-18T14:33:36;24.60;29.40
68387;DHT22;55338;43.062;25.624;2022-10-18T14:38:28;22.50;33.60
68387;DHT22;55338;43.062;25.624;2022-10-18T14:43:36;21.10;35.90
68387;DHT22;55338;43.062;25.624;2022-10-18T14:46:14;20.70;37.60
68387;DHT22;55338;43.062;25.624;2022-10-18T14:48:41;20.40;38.50
68387;DHT22;55338;43.062;25.624;2022-10-18T14:51:08;20.00;40.50
68387;DHT22;55338;43.062;25.624;2022-10-18T14:53:37;19.70;41.10
68387;DHT22;55338;43.062;25.624;2022-10-18T14:56:05;19.40;42.20
68387;DHT22;55338;43.062;25.624;2022-10-18T14:58:35;19.20;42.90
68387;DHT22;55338;43.062;25.624;2022-10-18T15:01:02;19.00;44.10
68387;DHT22;55338;43.062;25.624;2022-10-18T15:03:31;18.60;46.20
68387;DHT22;55338;43.062;25.624;2022-10-18T15:06:01;18.20;47.20
68387;DHT22;55338;43.062;25.624;2022-10-18T15:08:48;18.00;48.00
68387;DHT22;55338;43.062;25.624;2022-10-18T15:11:16;17.80;48.70
68387;DHT22;55338;43.062;25.624;2022-10-18T15:13:57;17.60;50.20
68387;DHT22;55338;43.062;25.624;2022-10-18T15:16:26;17.40;50.70
68387;DHT22;55338;43.062;25.624;2022-10-18T15:19:05;17.20;51.80
68387;DHT22;55338;43.062;25.624;2022-10-18T15:21:34;16.90;53.10
68387;DHT22;55338;43.062;25.624;2022-10-18T15:24:39;16.80;53.70
68387;DHT22;55338;43.062;25.624;2022-10-18T15:27:19;16.50;54.80
68387;DHT22;55338;43.062;25.624;2022-10-18T15:29:48;16.40;55.70
68387;DHT22;55338;43.062;25.624;2022-10-18T15:32:23;16.20;55.50
68387;DHT22;55338;43.062;25.624;2022-10-18T15:34:50;16.00;58.30
68387;DHT22;55338;43.062;25.624;2022-10-18T15:37:37;15.80;60.40
68387;DHT22;55338;43.062;25.624;2022-10-18T15:42:56;15.40;62.70
68387;DHT22;55338;43.062;25.624;2022-10-18T15:48:22;15.10;63.50
68387;DHT22;55338;43.062;25.624;2022-10-18T15:50:57;14.90;63.70
68387;DHT22;55338;43.062;25.624;2022-10-18T15:56:34;14.60;64.40
68387;DHT22;55338;43.062;25.624;2022-10-18T15:59:05;14.30;66.80
68387;DHT22;55338;43.062;25.624;2022-10-18T16:01:41;14.20;68.50
68387;DHT22;55338;43.062;25.624;2022-10-18T16:04:27;14.10;69.10
68387;DHT22;55338;43.062;25.624;2022-10-18T16:06:53;14.00;67.90
68387;DHT22;55338;43.062;25.624;2022-10-18T16:09:22;13.90;69.60
68387;DHT22;55338;43.062;25.624;2022-10-18T16:11:48;13.80;70.10
68387;DHT22;55338;43.062;25.624;2022-10-18T16:14:19;13.70;69.50
68387;DHT22;55338;43.062;25.624;2022-10-18T16:16:45;13.50;70.50
68387;DHT22;55338;43.062;25.624;2022-10-18T16:19:16;13.40;72.60
68387;DHT22;55338;43.062;25.624;2022-10-18T16:21:48;13.20;73.20
68387;DHT22;55338;43.062;25.624;2022-10-18T16:24:14;13.10;74.30
68387;DHT22;55338;43.062;25.624;2022-10-18T16:26:40;13.00;74.40
68387;DHT22;55338;43.062;25.624;2022-10-18T16:29:09;12.90;74.90
68387;DHT22;55338;43.062;25.624;2022-10-18T16:31:37;12.80;75.20
68387;DHT22;55338;43.062;25.624;2022-10-18T16:34:03;12.70;76.00
68387;DHT22;55338;43.062;25.624;2022-10-18T16:36:31;12.60;76.50
68387;DHT22;55338;43.062;25.624;2022-10-18T16:38:58;12.50;77.40
68387;DHT22;55338;43.062;25.624;2022-10-18T16:41:25;12.40;77.60
68387;DHT22;55338;43.062;25.624;2022-10-18T16:43:52;12.30;77.60
68387;DHT22;55338;43.062;25.624;2022-10-18T16:46:24;12.20;78.20
68387;DHT22;55338;43.062;25.624;2022-10-18T16:48:52;12.10;78.80
68387;DHT22;55338;43.062;25.624;2022-10-18T16:51:18;12.00;79.20
68387;DHT22;55338;43.062;25.624;2022-10-18T16:53:44;11.90;79.60
68387;DHT22;55338;43.062;25.624;2022-10-18T16:56:30;11.80;80.00
68387;DHT22;55338;43.062;25.624;2022-10-18T16:58:57;11.70;80.50
68387;DHT22;55338;43.062;25.624;2022-10-18T17:01:24;11.60;81.10
68387;DHT22;55338;43.062;25.624;2022-10-18T17:03:51;11.50;81.50
68387;DHT22;55338;43.062;25.624;2022-10-18T17:06:28;11.50;81.60
68387;DHT22;55338;43.062;25.624;2022-10-18T17:08:56;11.40;82.00
68387;DHT22;55338;43.062;25.624;2022-10-18T17:11:23;11.30;82.60
68387;DHT22;55338;43.062;25.624;2022-10-18T17:13:49;11.20;82.90
68387;DHT22;55338;43.062;25.624;2022-10-18T17:16:22;11.10;83.00
68387;DHT22;55338;43.062;25.624;2022-10-18T17:18:49;11.00;83.40
68387;DHT22;55338;43.062;25.624;2022-10-18T17:21:15;10.90;83.80
68387;DHT22;55338;43.062;25.624;2022-10-18T17:23:40;10.80;84.20
68387;DHT22;55338;43.062;25.624;2022-10-18T17:26:15;10.70;84.20
68387;DHT22;55338;43.062;25.624;2022-10-18T17:28:41;10.60;84.30
68387;DHT22;55338;43.062;25.624;2022-10-18T17:31:07;10.60;84.90
68387;DHT22;55338;43.062;25.624;2022-10-18T17:33:33;10.60;84.80
68387;DHT22;55338;43.062;25.624;2022-10-18T17:35:59;10.50;85.00
68387;DHT22;55338;43.062;25.624;2022-10-18T17:38:24;10.50;85.10
68387;DHT22;55338;43.062;25.624;2022-10-18T17:40:50;10.50;85.00
68387;DHT22;55338;43.062;25.624;2022-10-18T17:43:19;10.50;85.00
68387;DHT22;55338;43.062;25.624;2022-10-18T17:45:57;10.40;85.70
68387;DHT22;55338;43.062;25.624;2022-10-18T17:48:23;10.40;85.90
68387;DHT22;55338;43.062;25.624;2022-10-18T17:50:49;10.40;85.40
68387;DHT22;55338;43.062;25.624;2022-10-18T17:53:15;10.30;85.80
68387;DHT22;55338;43.062;25.624;2022-10-18T17:55:45;10.20;86.10
68387;DHT22;55338;43.062;25.624;2022-10-18T17:58:10;10.20;86.40
68387;DHT22;55338;43.062;25.624;2022-10-18T18:00:36;10.10;86.80
68387;DHT22;55338;43.062;25.624;2022-10-18T18:03:02;10.00;87.20
68387;DHT22;55338;43.062;25.624;2022-10-18T18:05:32;10.00;87.60
68387;DHT22;55338;43.062;25.624;2022-10-18T18:07:58;9.90;87.90
68387;DHT22;55338;43.062;25.624;2022-10-18T18:10:24;9.80;88.00
68387;DHT22;55338;43.062;25.624;2022-10-18T18:12:50;9.80;88.30
68387;DHT22;55338;43.062;25.624;2022-10-18T18:15:15;9.70;88.70
68387;DHT22;55338;43.062;25.624;2022-10-18T18:17:41;9.70;88.80
68387;DHT22;55338;43.062;25.624;2022-10-18T18:20:07;9.60;89.10
68387;DHT22;55338;43.062;25.624;2022-10-18T18:22:33;9.50;89.40
68387;DHT22;55338;43.062;25.624;2022-10-18T18:24:59;9.40;89.80
68387;DHT22;55338;43.062;25.624;2022-10-18T18:27:24;9.30;90.20
68387;DHT22;55338;43.062;25.624;2022-10-18T18:29:50;9.30;90.60
68387;DHT22;55338;43.062;25.624;2022-10-18T18:32:16;9.20;90.90
68387;DHT22;55338;43.062;25.624;2022-10-18T18:34:42;9.10;91.20
68387;DHT22;55338;43.062;25.624;2022-10-18T18:37:08;9.10;91.10
68387;DHT22;55338;43.062;25.624;2022-10-18T18:39:34;9.10;91.10
68387;DHT22;55338;43.062;25.624;2022-10-18T18:42:01;9.00;91.10
68387;DHT22;55338;43.062;25.624;2022-10-18T18:44:28;8.90;91.20
68387;DHT22;55338;43.062;25.624;2022-10-18T18:46:54;8.80;91.50
68387;DHT22;55338;43.062;25.624;2022-10-18T18:49:20;8.90;91.50
68387;DHT22;55338;43.062;25.624;2022-10-18T18:51:46;8.80;91.40
68387;DHT22;55338;43.062;25.624;2022-10-18T18:54:13;8.80;91.60
68387;DHT22;55338;43.062;25.624;2022-10-18T18:56:40;8.70;91.80
68387;DHT22;55338;43.062;25.624;2022-10-18T18:59:07;8.70;92.20
68387;DHT22;55338;43.062;25.624;2022-10-18T19:01:36;8.60;92.30
68387;DHT22;55338;43.062;25.624;2022-10-18T19:04:04;8.60;92.40
68387;DHT22;55338;43.062;25.624;2022-10-18T19:06:35;8.50;92.80
68387;DHT22;55338;43.062;25.624;2022-10-18T19:09:04;8.50;93.10
68387;DHT22;55338;43.062;25.624;2022-10-18T19:11:34;8.50;92.90
68387;DHT22;55338;43.062;25.624;2022-10-18T19:14:02;8.50;93.40
68387;DHT22;55338;43.062;25.624;2022-10-18T19:16:40;8.40;93.10
68387;DHT22;55338;43.062;25.624;2022-10-18T19:19:08;8.40;93.50
68387;DHT22;55338;43.062;25.624;2022-10-18T19:21:38;8.40;93.80
68387;DHT22;55338;43.062;25.624;2022-10-18T19:24:05;8.40;93.60
68387;DHT22;55338;43.062;25.624;2022-10-18T19:29:15;8.20;94.00
68387;DHT22;55338;43.062;25.624;2022-10-18T19:31:42;8.10;94.30
68387;DHT22;55338;43.062;25.624;2022-10-18T19:34:10;8.00;94.70